Time;durP1;ratioP1;P1;durP2;ratioP2;P2;SDS_P1;SDS_P2;PMS_P1;PMS_P2;Temp;Humidity;BMP_temperature;BMP_pressure;BME280_temperature;BME280_humidity;BME280_pressure;Samples;Min_cycle;Max_cycle;Signal;HPM_P1;HPM_P2
2023/12/10 08:54:46;;;;;;;;;;;;;;;-1.64;76.07;101371.27;107569;1251;96558;-62
2023/12/10 08:57:15;;;;;;;;;;;;;;;-1.60;75.57;101369.05;107570;1251;95757;-63
2023/12/10 08:59:44;;;;;;;;;;;;;;;-1.60;75.57;101362.19;107573;1251;110900;-63
2023/12/10 09:02:12;;;;;;;;;;;;;;;-1.58;75.57;101364.25;107674;1251;109308;-65
2023/12/10 09:04:40;;;;;;;;;;;;;;;-1.56;75.40;101362.42;107584;1251;107498;-63
2023/12/10 09:07:09;;;;;;;;;;;;;;;-1.56;75.31;101354.85;107558;1251;97788;-63
2023/12/10 09:09:37;;;;;;;;;;;;;;;-1.57;75.27;101343.27;107595;1251;96447;-62
2023/12/10 09:12:05;;;;;;;;;;;;;;;-1.57;75.48;101338.55;107598;1251;110267;-62
2023/12/10 09:14:34;;;;;;;;;;;;;;;-1.54;75.65;101335.81;107571;1251;109682;-61
2023/12/10 09:17:02;;;;;;;;;;;;;;;-1.51;75.72;101339.77;107595;1250;107518;-63
2023/12/10 09:19:31;;;;;;;;;;;;;;;-1.49;75.47;101334.80;107576;1251;96507;-62
2023/12/10 09:22:00;;;;;;;;;;;;;;;-1.47;75.68;101328.91;107604;1251;96463;-64
2023/12/10 09:24:29;;;;;;;;;;;;;;;-1.45;75.87;101323.23;107643;1251;111256;-63
2023/12/10 09:26:58;;;;;;;;;;;;;;;-1.42;75.63;101322.98;107653;1251;109848;-63
2023/12/10 09:29:26;;;;;;;;;;;;;;;-1.40;75.70;101325.73;107539;1251;108632;-63
2023/12/10 09:31:54;;;;;;;;;;;;;;;-1.35;75.70;101329.44;107597;1251;97075;-62
2023/12/10 09:34:22;;;;;;;;;;;;;;;-1.32;75.49;101333.58;107574;1251;96503;-63
2023/12/10 09:36:53;;;;;;;;;;;;;;;-1.31;75.47;101330.38;107585;1254;110175;-62
2023/12/10 09:39:21;;;;;;;;;;;;;;;-1.29;75.12;101329.44;107555;1251;109180;-62
2023/12/10 09:41:50;;;;;;;;;;;;;;;-1.26;75.49;101325.48;107614;1251;108379;-62
2023/12/10 09:44:18;;;;;;;;;;;;;;;-1.20;75.46;101328.83;107603;1251;97834;-62
2023/12/10 09:46:46;;;;;;;;;;;;;;;-1.16;75.26;101329.23;107601;1251;97927;-62
2023/12/10 09:49:15;;;;;;;;;;;;;;;-1.12;75.27;101326.99;107591;1251;111249;-62
2023/12/10 09:51:43;;;;;;;;;;;;;;;-1.08;74.90;101325.48;107570;1251;108603;-64
2023/12/10 09:54:11;;;;;;;;;;;;;;;-1.03;74.67;101323.36;107605;1251;108395;-62
2023/12/10 09:56:39;;;;;;;;;;;;;;;-1.04;74.09;101317.94;107576;1251;97857;-63
2023/12/10 09:59:08;;;;;;;;;;;;;;;-1.08;73.89;101314.37;107611;1250;97871;-63
2023/12/10 10:01:37;;;;;;;;;;;;;;;-1.09;73.92;101314.77;107602;1251;112406;-63
2023/12/10 10:04:06;;;;;;;;;;;;;;;-1.12;74.23;101316.61;107699;1251;109987;-62
2023/12/10 10:06:34;;;;;;;;;;;;;;;-1.15;74.14;101311.96;107605;1251;107948;-62
2023/12/10 10:09:04;;;;;;;;;;;;;;;-1.17;74.31;101311.84;107602;1251;97900;-63
2023/12/10 10:11:33;;;;;;;;;;;;;;;-1.19;74.28;101311.73;107630;1251;97876;-63
2023/12/10 10:14:01;;;;;;;;;;;;;;;-1.20;74.49;101308.75;107386;1251;286053;-62
2023/12/10 10:16:30;;;;;;;;;;;;;;;-1.17;74.50;101310.63;107598;1251;110559;-61
2023/12/10 10:18:59;;;;;;;;;;;;;;;-1.16;74.81;101308.98;107595;1249;108261;-61
2023/12/10 10:21:29;;;;;;;;;;;;;;;-1.16;74.83;101304.42;107627;1251;97841;-61
2023/12/10 10:23:58;;;;;;;;;;;;;;;-1.15;74.92;101303.69;107650;1251;97848;-61
2023/12/10 10:26:26;;;;;;;;;;;;;;;-1.14;75.14;101310.52;107633;1253;112073;-62
2023/12/10 10:28:54;;;;;;;;;;;;;;;-1.14;74.92;101309.98;107624;1253;109256;-62
2023/12/10 10:31:22;;;;;;;;;;;;;;;-1.13;74.76;101303.96;107594;1251;108579;-62
2023/12/10 10:33:51;;;;;;;;;;;;;;;-1.12;74.72;101304.13;107546;1251;97909;-62
2023/12/10 10:36:21;;;;;;;;;;;;;;;-1.11;74.56;101306.02;107598;1250;97807;-61
2023/12/10 10:38:51;;;;;;;;;;;;;;;-1.12;74.44;101301.11;107623;1249;111780;-62
2023/12/10 10:41:20;;;;;;;;;;;;;;;-1.14;74.39;101301.73;107569;1251;109986;-63
2023/12/10 10:43:49;;;;;;;;;;;;;;;-1.17;74.47;101299.52;107589;1251;108288;-61
2023/12/10 10:46:20;;;;;;;;;;;;;;;-1.19;74.63;101297.98;107510;1251;97853;-62
2023/12/10 10:48:51;;;;;;;;;;;;;;;-1.20;74.74;101293.98;107621;1251;97829;-63
2023/12/10 10:51:28;;;;;;;;;;;;;;;-1.22;75.01;101288.92;107645;1251;111319;-62
2023/12/10 10:53:57;;;;;;;;;;;;;;;-1.23;75.08;101290.36;107597;1251;109697;-62
2023/12/10 10:56:26;;;;;;;;;;;;;;;-1.25;74.63;101287.44;107584;1250;108551;-63
2023/12/10 10:58:54;;;;;;;;;;;;;;;-1.27;74.94;101289.58;107591;1251;97848;-62
2023/12/10 11:01:36;;;;;;;;;;;;;;;-1.27;74.97;101289.80;107599;1251;97707;-65
2023/12/10 11:04:04;;;;;;;;;;;;;;;-1.28;74.98;101283.14;107588;1251;111989;-60
2023/12/10 11:06:36;;;;;;;;;;;;;;;-1.27;75.19;101280.28;107537;1251;109987;-64
2023/12/10 11:09:04;;;;;;;;;;;;;;;-1.23;75.08;101281.20;107541;1250;106739;-63
2023/12/10 11:11:41;;;;;;;;;;;;;;;-1.18;75.25;101285.28;107512;1254;97866;-62
2023/12/10 11:14:22;;;;;;;;;;;;;;;-1.13;75.29;101279.66;107504;1251;97821;-62
2023/12/10 11:16:56;;;;;;;;;;;;;;;-1.11;74.92;101273.80;107562;1253;113374;-65
2023/12/10 11:19:25;;;;;;;;;;;;;;;-1.11;74.92;101273.45;107613;1253;109688;-63
2023/12/10 11:21:53;;;;;;;;;;;;;;;-1.07;75.03;101272.45;107598;1251;107737;-63
2023/12/10 11:24:23;;;;;;;;;;;;;;;-1.02;75.12;101266.64;107541;1251;98288;-62
2023/12/10 11:26:51;;;;;;;;;;;;;;;-0.98;75.30;101260.55;107579;1251;97712;-63
2023/12/10 11:29:19;;;;;;;;;;;;;;;-0.95;75.06;101259.37;107623;1253;111782;-63
2023/12/10 11:31:47;;;;;;;;;;;;;;;-0.97;74.90;101260.66;107508;1251;109732;-62
2023/12/10 11:34:15;;;;;;;;;;;;;;;-0.97;75.10;101260.86;107605;1250;108027;-63
2023/12/10 11:36:45;;;;;;;;;;;;;;;-0.97;75.02;101259.27;107570;1251;97815;-63
2023/12/10 11:39:15;;;;;;;;;;;;;;;-0.98;75.00;101259.48;107585;1250;97841;-61
2023/12/10 11:41:43;;;;;;;;;;;;;;;-1.04;74.38;101262.31;107533;1251;111635;-62
2023/12/10 11:44:30;;;;;;;;;;;;;;;-1.11;74.64;101268.19;107595;1251;109580;-61
2023/12/10 11:47:03;;;;;;;;;;;;;;;-1.17;74.73;101264.65;107619;1254;107061;-62
2023/12/10 11:49:33;;;;;;;;;;;;;;;-1.18;74.70;101266.81;107605;1251;97859;-62
2023/12/10 11:52:03;;;;;;;;;;;;;;;-1.19;74.71;101273.89;107616;1251;98024;-63
2023/12/10 11:54:35;;;;;;;;;;;;;;;-1.18;74.92;101270.34;107623;1251;111229;-62
2023/12/10 11:57:04;;;;;;;;;;;;;;;-1.18;74.77;101270.51;107615;1251;107945;-65
2023/12/10 11:59:32;;;;;;;;;;;;;;;-1.18;75.00;101269.63;107589;1251;108353;-62
2023/12/10 12:02:01;;;;;;;;;;;;;;;-1.18;74.81;101272.45;107539;1251;98727;-63
2023/12/10 12:04:29;;;;;;;;;;;;;;;-1.20;75.06;101263.35;107522;1251;97852;-61
2023/12/10 12:18:26;;;;;;;;;;;;;;;-1.42;75.26;101276.88;107529;1251;97822;-62
2023/12/10 12:20:56;;;;;;;;;;;;;;;-1.45;75.40;101284.54;107562;1251;98460;-61
2023/12/10 12:23:25;;;;;;;;;;;;;;;-1.48;75.46;101282.36;107587;1253;111835;-64
2023/12/10 12:30:25;;;;;;;;;;;;;;;-1.46;75.90;101285.08;108988;1247;106198;-63
2023/12/10 12:32:53;;;;;;;;;;;;;;;-1.44;75.74;101292.08;107290;1254;97848;-63
2023/12/10 12:35:22;;;;;;;;;;;;;;;-1.44;75.71;101291.71;107342;1254;97740;-63
2023/12/10 12:37:50;;;;;;;;;;;;;;;-1.43;75.85;101285.00;107304;1254;111724;-61
2023/12/10 20:20:32;;;;;;;;;;;;;;;-0.89;81.36;101409.41;101022;1268;958474;-66
2023/12/10 20:23:07;;;;;;;;;;;;;;;-0.94;81.37;101410.43;106484;1268;97850;-69
2023/12/10 20:25:42;;;;;;;;;;;;;;;-0.92;81.65;101406.34;106512;1268;113736;-68
2023/12/10 20:28:18;;;;;;;;;;;;;;;-0.93;81.41;101404.77;106517;1268;110095;-67
2023/12/10 20:30:53;;;;;;;;;;;;;;;-0.95;81.30;101399.01;106440;1268;108307;-67
2023/12/10 20:33:26;;;;;;;;;;;;;;;-0.94;81.48;101404.79;106468;1268;97881;-64
2023/12/10 20:36:01;;;;;;;;;;;;;;;-0.99;81.33;101414.45;106487;1268;97852;-67
2023/12/10 20:38:36;;;;;;;;;;;;;;;-1.01;81.49;101412.04;106472;1271;110784;-64
2023/12/10 20:41:07;;;;;;;;;;;;;;;-1.02;81.43;101410.84;106528;1268;109771;-65
2023/12/10 20:43:40;;;;;;;;;;;;;;;-1.03;81.50;101406.14;106507;1268;108565;-66
2023/12/10 20:46:15;;;;;;;;;;;;;;;-1.06;81.51;101410.61;106532;1268;97875;-68
2023/12/10 20:48:50;;;;;;;;;;;;;;;-1.09;81.66;101408.59;106504;1268;97770;-66
2023/12/10 20:51:22;;;;;;;;;;;;;;;-1.12;81.96;101412.20;106466;1268;112452;-65
2023/12/10 20:53:56;;;;;;;;;;;;;;;-1.14;81.91;101419.11;106511;1268;109098;-68
2023/12/10 20:56:35;;;;;;;;;;;;;;;-1.15;82.16;101421.27;106477;1268;108220;-70
2023/12/10 20:59:10;;;;;;;;;;;;;;;-1.15;81.81;101419.15;106490;1268;97979;-67
2023/12/10 21:01:43;;;;;;;;;;;;;;;-1.16;81.95;101421.13;106504;1268;97871;-67
2023/12/10 21:04:19;;;;;;;;;;;;;;;-1.13;82.35;101418.20;106523;1268;112213;-66
2023/12/10 21:06:52;;;;;;;;;;;;;;;-1.05;82.63;101416.05;106523;1268;109069;-65
2023/12/10 21:09:27;;;;;;;;;;;;;;;-1.01;82.72;101412.59;106492;1272;107511;-67
2023/12/10 21:12:01;;;;;;;;;;;;;;;-0.97;82.86;101411.20;106532;1268;97869;-65
2023/12/10 21:14:34;;;;;;;;;;;;;;;-0.93;82.64;101405.81;106537;1268;97848;-68
2023/12/10 21:32:27;;;;;;;;;;;;;;;-1.24;82.73;101391.44;106545;1268;97735;-66
2023/12/10 21:35:00;;;;;;;;;;;;;;;-1.30;83.05;101387.00;106538;1268;111923;-66
2023/12/10 21:37:29;;;;;;;;;;;;;;;-1.35;82.98;101382.94;106603;1268;109365;-64
2023/12/10 21:40:01;;;;;;;;;;;;;;;-1.35;83.12;101382.75;106551;1268;108560;-65
